Airfield :
LOGIN :

Register | Disclaimer

   EN    FR    IT 

 










Legend :    VFR   Marginal VFR   IFR   Intensive IFR   Very Intensive IFR
Visi :
Ceiling :
>= 8 km
>= 3000ft
5 to 8 km
1000 to 3000 ft
1500m to 5 km
500 to 1000 ft
800 to 1500m
200 to 500 ft
< 800m
< 200 ft
Symbols :   Thunderstorms  Fog  Heavy snow  Heavy precipitations  Wind > 20 kt
SIGMETs :     Misc.  Thunderstorms  Icing  Turbulence  Mountain Waves  Volcanic Ashes






- Airport Elevation : 489 ft
- IATA code : GDN


EPGD - Gdansk

CURRENT METAR :
  • 072100Z 25014KT 9999 FEW023 04/02 Q1002

EXPIRED METARs :
  • 072030Z 27015G26KT 9999 FEW018 05/02 Q1002
  • 072000Z 27017KT 9999 FEW016 05/02 Q1002
  • 071930Z 27015KT 9999 BKN018 05/02 Q1001
  • 071900Z 27014KT 9999 BKN019 05/03 Q1001
  • 071830Z 27018KT 9999 BKN017 05/03 Q1001
  • 071800Z 28015KT 9999 FEW003 FEW019CB BKN023 05/03 Q1000

TAF TAF EPGD
Valid from the 07 at 18:00 until the 08 at 18:00 UTC


071730Z 0718/0818 27014KT 9999 SCT025
TEMPO 0718/0806 4000 SHRA BKN014CB
PROB40 0718/0720 27017G27KT
BECMG 0803/0806 20014KT
TEMPO 0807/0812 21017G28KT BKN014
PROB40
TEMPO 0812/0818 RA BKN014



MET'MAP, your aeronautical weather chart ! - Copyright ORBIFLY December 2007 - Disclaimer

ORBIFLY MET'MAP TEAM :

Programming & Development : Alexandra Zaïnal
Concept & original design : Baudouin d'Aumeries
Assistance for programming : Marc-Olivier Méhu
Technical & hardware support : Manuel Goepfert

Contact : metmap@orbifly.com




SOURCES & CREDITS :

   NOAA